createdAt,value
2023-02-16T00:01:55.175Z,20.30
2023-02-16T00:04:28.385Z,17.50
2023-02-16T00:06:56.690Z,21.33
2023-02-16T00:09:27.830Z,24.27
2023-02-16T00:12:13.392Z,17.10
2023-02-16T00:14:44.975Z,21.17
2023-02-16T00:17:14.364Z,20.53
2023-02-16T00:19:43.064Z,19.63
2023-02-16T00:22:20.076Z,17.13
2023-02-16T00:24:47.923Z,17.93
2023-02-16T00:27:18.681Z,16.00
2023-02-16T00:29:46.483Z,19.50
2023-02-16T00:32:16.972Z,19.47
2023-02-16T00:34:47.267Z,23.30
2023-02-16T00:37:15.341Z,20.53
2023-02-16T00:39:44.936Z,17.70
2023-02-16T00:42:15.417Z,14.53
2023-02-16T00:44:45.210Z,19.70
2023-02-16T00:47:20.381Z,17.53
2023-02-16T00:49:49.732Z,19.47
2023-02-16T00:52:29.334Z,19.10
2023-02-16T00:55:00.489Z,17.47
2023-02-16T00:57:29.078Z,14.37
2023-02-16T01:00:03.545Z,20.40
2023-02-16T01:02:34.335Z,23.43
2023-02-16T01:05:03.476Z,15.43
2023-02-16T01:07:48.754Z,15.67
2023-02-16T01:10:35.567Z,17.63
2023-02-16T01:13:06.021Z,23.53
2023-02-16T01:15:33.954Z,15.60
2023-02-16T01:18:03.224Z,16.30
2023-02-16T01:20:36.325Z,17.83
2023-02-16T01:23:07.509Z,21.77
2023-02-16T01:25:35.493Z,16.70
2023-02-16T01:28:03.375Z,13.80
2023-02-16T01:30:36.704Z,17.37
2023-02-16T01:33:08.196Z,15.57
2023-02-16T01:35:38.100Z,17.80
2023-02-16T01:38:07.783Z,17.47
2023-02-16T01:40:39.695Z,13.20
2023-02-16T01:43:15.940Z,19.03
2023-02-16T01:45:46.686Z,16.07
2023-02-16T01:48:21.996Z,18.97
2023-02-16T01:50:53.805Z,17.27
2023-02-16T01:53:27.162Z,15.77
2023-02-16T01:56:00.548Z,19.57
2023-02-16T01:58:35.667Z,14.00
2023-02-16T02:01:42.893Z,16.17
2023-02-16T02:04:39.027Z,17.57
2023-02-16T02:07:08.469Z,12.33
2023-02-16T02:09:41.813Z,15.67
2023-02-16T02:12:18.335Z,12.30
2023-02-16T02:14:46.979Z,14.67
2023-02-16T02:17:17.659Z,17.33
2023-02-16T02:19:55.625Z,14.20
2023-02-16T02:23:11.525Z,17.13
2023-02-16T02:29:25.805Z,13.03
2023-02-16T02:31:58.818Z,12.13
2023-02-16T02:34:35.476Z,16.10
2023-02-16T02:37:10.880Z,12.00
2023-02-16T02:39:44.715Z,12.13
2023-02-16T02:42:18.134Z,13.20
2023-02-16T02:44:51.850Z,16.60
2023-02-16T02:47:22.284Z,12.60
2023-02-16T02:49:52.056Z,11.97
2023-02-16T02:52:20.324Z,16.37
2023-02-16T02:55:07.953Z,15.40
2023-02-16T02:57:55.836Z,12.83
2023-02-16T03:00:44.093Z,12.90
2023-02-16T03:03:21.643Z,12.53
2023-02-16T03:05:58.106Z,14.67
2023-02-16T03:08:29.471Z,17.60
2023-02-16T03:11:20.701Z,14.47
2023-02-16T03:13:50.837Z,15.20
2023-02-16T03:16:24.070Z,13.00
2023-02-16T03:19:09.659Z,16.47
2023-02-16T03:21:57.747Z,15.20
2023-02-16T03:24:46.417Z,11.67
2023-02-16T03:27:36.336Z,12.50
2023-02-16T03:30:05.716Z,19.43
2023-02-16T03:32:36.450Z,12.17
2023-02-16T03:35:08.690Z,14.33
2023-02-16T03:37:39.283Z,15.07
2023-02-16T03:40:30.900Z,15.60
2023-02-16T03:43:00.319Z,15.53
2023-02-16T03:45:32.364Z,10.37
2023-02-16T03:48:02.927Z,13.93
2023-02-16T03:50:31.857Z,13.10
2023-02-16T03:53:09.063Z,15.43
2023-02-16T03:55:41.838Z,12.40
2023-02-16T03:58:11.168Z,13.57
2023-02-16T04:00:39.402Z,16.10
2023-02-16T04:03:12.307Z,12.73
2023-02-16T04:05:49.415Z,13.40
2023-02-16T04:08:23.516Z,14.87
2023-02-16T04:10:57.074Z,12.73
2023-02-16T04:13:30.064Z,18.53
2023-02-16T04:16:00.610Z,14.60
2023-02-16T04:18:31.075Z,13.03
2023-02-16T04:21:07.317Z,13.23
2023-02-16T04:23:35.127Z,12.60
2023-02-16T04:26:11.929Z,14.50
2023-02-16T04:28:39.798Z,13.90
2023-02-16T04:31:07.920Z,9.57
2023-02-16T04:33:38.085Z,12.53
2023-02-16T04:36:10.969Z,13.53
2023-02-16T04:38:41.410Z,11.20
2023-02-16T04:41:32.939Z,12.07
2023-02-16T04:44:01.900Z,14.53
2023-02-16T04:46:33.499Z,12.10
2023-02-16T04:49:05.937Z,14.67
2023-02-16T04:51:36.053Z,15.93
2023-02-16T04:54:03.927Z,15.07
2023-02-16T04:56:36.908Z,13.47
2023-02-16T04:59:08.562Z,12.27
2023-02-16T05:01:38.628Z,14.43
2023-02-16T05:04:13.194Z,11.30
2023-02-16T05:06:41.083Z,16.47
2023-02-16T05:09:11.536Z,11.27
2023-02-16T05:11:56.717Z,16.83
2023-02-16T05:14:45.102Z,15.80
2023-02-16T05:17:18.878Z,17.27
2023-02-16T05:19:49.565Z,16.80
2023-02-16T05:22:20.931Z,13.57
2023-02-16T05:24:53.297Z,17.93
2023-02-16T05:27:27.045Z,16.00
2023-02-16T05:29:57.644Z,14.87
2023-02-16T05:32:25.760Z,15.20
2023-02-16T05:34:55.374Z,13.60
2023-02-16T05:37:23.236Z,10.27
2023-02-16T05:39:52.777Z,14.80
2023-02-16T05:42:39.112Z,13.17
2023-02-16T05:45:12.384Z,13.17
2023-02-16T05:47:40.171Z,13.63
2023-02-16T05:50:10.695Z,12.13
2023-02-16T05:52:44.663Z,11.40
2023-02-16T05:55:12.833Z,13.00
2023-02-16T05:57:41.878Z,13.53
2023-02-16T06:00:10.997Z,15.73
2023-02-16T06:02:49.030Z,17.63
2023-02-16T06:05:18.284Z,12.93
2023-02-16T06:07:47.918Z,15.00
2023-02-16T06:10:16.384Z,14.00
2023-02-16T06:12:44.993Z,13.57
2023-02-16T06:15:15.739Z,14.50
2023-02-16T06:17:44.885Z,18.57
2023-02-16T06:20:13.524Z,14.40
2023-02-16T06:22:42.815Z,29.43
2023-02-16T06:25:11.467Z,19.23
2023-02-16T06:27:42.407Z,10.80
2023-02-16T06:30:19.796Z,11.83
2023-02-16T06:32:48.328Z,15.83
2023-02-16T06:35:16.363Z,16.90
2023-02-16T06:37:55.617Z,11.13
2023-02-16T06:40:23.693Z,16.60
2023-02-16T06:42:58.808Z,16.90
2023-02-16T06:45:26.679Z,15.27
2023-02-16T06:47:54.560Z,10.20
2023-02-16T06:50:24.372Z,14.63
2023-02-16T06:52:55.247Z,19.27
2023-02-16T06:55:27.994Z,17.83
2023-02-16T06:57:55.831Z,20.33
2023-02-16T07:00:23.815Z,17.00
2023-02-16T07:02:51.803Z,15.77
2023-02-16T07:05:19.726Z,12.83
2023-02-16T07:07:50.565Z,20.33
2023-02-16T07:10:20.580Z,13.37
2023-02-16T07:12:49.784Z,14.73
2023-02-16T07:15:17.808Z,18.10
2023-02-16T07:17:45.737Z,14.60
2023-02-16T07:20:15.820Z,19.27
2023-02-16T07:22:47.119Z,13.97
2023-02-16T07:25:21.632Z,13.77
2023-02-16T07:27:49.516Z,13.00
2023-02-16T07:30:18.948Z,16.47
2023-02-16T07:32:49.847Z,23.87
2023-02-16T07:35:18.422Z,19.07
2023-02-16T07:37:46.334Z,16.80
2023-02-16T07:40:16.834Z,17.23
2023-02-16T07:42:47.551Z,13.47
2023-02-16T07:45:17.328Z,10.20
2023-02-16T07:47:47.865Z,15.73
2023-02-16T07:50:19.891Z,13.53
2023-02-16T07:52:50.509Z,14.17
2023-02-16T07:55:18.582Z,17.13
2023-02-16T07:57:55.387Z,19.43
2023-02-16T08:00:23.616Z,15.90
2023-02-16T08:02:54.461Z,16.03
2023-02-16T08:05:25.881Z,14.10
2023-02-16T08:07:54.176Z,18.80
2023-02-16T08:10:27.121Z,16.27
2023-02-16T08:12:57.905Z,13.93
2023-02-16T08:15:29.159Z,15.50
2023-02-16T08:17:57.932Z,15.50
2023-02-16T08:20:48.273Z,19.70
2023-02-16T08:23:18.428Z,17.90
2023-02-16T08:25:49.001Z,16.60
2023-02-16T08:28:22.432Z,15.60
2023-02-16T08:30:53.451Z,20.13
2023-02-16T08:33:23.650Z,16.57
2023-02-16T08:35:52.258Z,17.30
2023-02-16T08:38:22.846Z,16.53
2023-02-16T08:40:52.878Z,20.60
2023-02-16T08:43:22.837Z,17.40
2023-02-16T08:45:53.509Z,19.00
2023-02-16T08:48:24.449Z,14.10
2023-02-16T08:50:57.240Z,14.33
2023-02-16T08:53:33.245Z,20.27
2023-02-16T08:56:11.094Z,23.40
2023-02-16T08:58:44.300Z,16.33
2023-02-16T09:01:12.838Z,17.10
2023-02-16T09:03:42.834Z,25.27
2023-02-16T09:06:23.981Z,26.43
2023-02-16T09:08:55.059Z,16.73
2023-02-16T09:11:26.214Z,18.90
2023-02-16T09:13:56.058Z,19.53
2023-02-16T09:16:27.863Z,15.33
2023-02-16T09:18:57.327Z,18.50
2023-02-16T09:21:28.337Z,13.27
2023-02-16T09:23:58.322Z,19.70
2023-02-16T09:26:26.924Z,22.63
2023-02-16T09:28:58.807Z,16.33
2023-02-16T09:31:31.167Z,18.30
2023-02-16T09:34:02.467Z,14.83
2023-02-16T09:36:31.115Z,19.90
2023-02-16T09:39:11.543Z,17.83
2023-02-16T09:41:59.149Z,19.20
2023-02-16T09:44:34.737Z,17.93
2023-02-16T09:47:06.250Z,18.27
2023-02-16T09:49:37.959Z,13.23
2023-02-16T09:52:11.532Z,17.30
2023-02-16T09:54:51.797Z,16.10
2023-02-16T09:57:36.969Z,15.07
2023-02-16T10:00:14.536Z,13.27
2023-02-16T10:02:49.019Z,15.70
2023-02-16T10:05:24.869Z,14.30
2023-02-16T10:08:06.455Z,12.70
2023-02-16T10:10:47.002Z,18.43
2023-02-16T10:13:26.273Z,18.60
2023-02-16T10:15:57.757Z,13.43
2023-02-16T10:18:33.465Z,14.73
2023-02-16T10:21:05.926Z,14.60
2023-02-16T10:23:42.197Z,13.10
2023-02-16T10:26:22.726Z,16.57
2023-02-16T10:28:54.988Z,19.27
2023-02-16T10:31:30.839Z,12.43
2023-02-16T10:34:08.070Z,16.03
2023-02-16T10:36:50.316Z,15.90
2023-02-16T10:39:23.916Z,12.10
2023-02-16T10:41:57.384Z,15.90
2023-02-16T10:44:30.414Z,14.90
2023-02-16T10:47:04.466Z,16.90
2023-02-16T10:49:33.739Z,16.87
2023-02-16T10:52:06.042Z,15.50
2023-02-16T10:54:36.312Z,20.40
2023-02-16T10:57:07.785Z,11.73
2023-02-16T10:59:42.655Z,17.30
2023-02-16T11:02:20.326Z,12.07
2023-02-16T11:04:50.159Z,10.87
2023-02-16T11:07:20.099Z,11.70
2023-02-16T11:09:51.178Z,15.07
2023-02-16T11:12:27.223Z,15.00
2023-02-16T11:14:57.377Z,11.80
2023-02-16T11:17:27.892Z,12.30
2023-02-16T11:20:00.775Z,12.77
2023-02-16T11:22:37.005Z,16.07
2023-02-16T11:25:28.197Z,13.27
2023-02-16T11:28:00.203Z,15.57
2023-02-16T11:30:35.619Z,16.17
2023-02-16T11:33:19.549Z,12.07
2023-02-16T11:35:49.466Z,11.13
2023-02-16T11:38:34.564Z,13.53
2023-02-16T11:41:08.436Z,12.57
2023-02-16T11:43:39.268Z,14.30
2023-02-16T11:46:21.019Z,11.90
2023-02-16T11:48:55.476Z,13.13
2023-02-16T11:51:35.106Z,12.47
2023-02-16T11:54:06.094Z,14.27
2023-02-16T11:56:37.692Z,11.67
2023-02-16T11:59:21.191Z,13.20
2023-02-16T12:02:01.312Z,12.90
2023-02-16T12:04:44.977Z,10.10
2023-02-16T12:07:23.131Z,11.77
2023-02-16T12:09:56.924Z,12.40
2023-02-16T12:12:34.493Z,11.67
2023-02-16T12:15:10.035Z,15.07
2023-02-16T12:17:49.148Z,15.00
2023-02-16T12:20:39.251Z,10.47
2023-02-16T12:23:22.842Z,11.20
2023-02-16T12:25:54.527Z,12.27
2023-02-16T12:28:27.751Z,11.63
2023-02-16T12:31:06.243Z,9.43
2023-02-16T12:33:43.564Z,9.17
2023-02-16T12:36:40.787Z,7.37
2023-02-16T12:39:19.720Z,9.83
2023-02-16T12:42:00.124Z,7.73
2023-02-16T12:44:34.349Z,10.93
2023-02-16T12:47:05.245Z,10.60
2023-02-16T12:49:40.975Z,11.03
2023-02-16T12:52:13.810Z,10.47
2023-02-16T12:54:45.923Z,12.30
2023-02-16T12:57:15.815Z,10.60
2023-02-16T12:59:49.922Z,10.20
2023-02-16T13:02:21.557Z,11.50
2023-02-16T13:04:52.101Z,11.60
2023-02-16T13:07:26.792Z,12.07
2023-02-16T13:10:05.838Z,7.67
2023-02-16T13:12:36.564Z,9.10
2023-02-16T13:15:12.409Z,9.30
2023-02-16T13:17:42.832Z,9.30
2023-02-16T13:20:16.697Z,9.70
2023-02-16T13:23:06.215Z,7.70
2023-02-16T13:26:00.146Z,5.83
2023-02-16T13:28:47.972Z,6.93
2023-02-16T13:31:27.706Z,4.77
2023-02-16T13:34:23.188Z,4.53
2023-02-16T13:36:58.158Z,6.47
2023-02-16T13:39:41.094Z,5.23
2023-02-16T13:42:36.763Z,7.53
2023-02-16T13:45:11.334Z,6.90
2023-02-16T13:47:42.632Z,6.07
2023-02-16T13:50:27.218Z,6.77
2023-02-16T13:52:57.623Z,5.80
2023-02-16T13:55:32.520Z,3.70
2023-02-16T13:58:14.021Z,4.10
2023-02-16T14:00:47.647Z,5.10
2023-02-16T14:03:38.013Z,7.00
2023-02-16T14:06:35.371Z,4.63
2023-02-16T14:09:36.939Z,7.43
2023-02-16T14:12:17.284Z,4.50
2023-02-16T14:14:57.288Z,4.47
2023-02-16T14:17:28.273Z,4.90
2023-02-16T14:20:01.092Z,5.50
2023-02-16T14:22:48.239Z,3.37
2023-02-16T14:25:38.852Z,8.00
2023-02-16T14:28:48.024Z,5.60
2023-02-16T14:31:18.871Z,4.57
2023-02-16T14:33:50.276Z,5.03
2023-02-16T14:36:24.345Z,5.23
2023-02-16T14:38:53.142Z,6.70
2023-02-16T14:41:32.928Z,5.27
2023-02-16T14:44:27.802Z,4.70
2023-02-16T14:47:08.189Z,4.07
2023-02-16T14:50:03.774Z,6.43
2023-02-16T14:53:07.735Z,6.63
2023-02-16T14:55:59.727Z,5.07
2023-02-16T14:58:31.934Z,4.43
2023-02-16T15:01:10.561Z,5.17
2023-02-16T15:03:46.535Z,4.90
2023-02-16T15:06:30.307Z,5.47
2023-02-16T15:09:02.329Z,3.77
2023-02-16T15:11:33.202Z,5.80
2023-02-16T15:14:08.337Z,5.60
2023-02-16T15:16:40.607Z,5.17
2023-02-16T15:19:13.514Z,4.63
2023-02-16T15:21:41.547Z,6.93
2023-02-16T15:24:26.889Z,5.43
2023-02-16T15:26:58.177Z,5.67
2023-02-16T15:29:27.785Z,7.40
2023-02-16T15:32:00.509Z,6.77
2023-02-16T15:34:33.932Z,9.73
2023-02-16T15:37:07.216Z,8.07
2023-02-16T15:39:49.753Z,8.70
2023-02-16T15:42:28.992Z,7.90
2023-02-16T15:44:59.287Z,5.83
2023-02-16T15:47:34.148Z,5.10
2023-02-16T15:50:13.389Z,6.93
2023-02-16T15:52:46.286Z,4.60
2023-02-16T15:55:17.375Z,5.10
2023-02-16T15:57:45.508Z,6.40
2023-02-16T16:00:23.532Z,4.90
2023-02-16T16:02:55.143Z,8.47
2023-02-16T16:05:26.277Z,7.53
2023-02-16T16:07:55.275Z,7.50
2023-02-16T16:10:30.232Z,5.60
2023-02-16T16:13:02.984Z,6.53
2023-02-16T16:15:38.037Z,7.87
2023-02-16T16:18:08.911Z,8.13
2023-02-16T16:20:38.493Z,11.03
2023-02-16T16:23:08.788Z,10.80
2023-02-16T16:25:46.119Z,6.87
2023-02-16T16:28:16.020Z,8.30
2023-02-16T16:30:46.932Z,18.23
2023-02-16T16:33:17.086Z,10.97
2023-02-16T16:35:47.810Z,8.13
2023-02-16T16:38:24.753Z,6.77
2023-02-16T16:40:54.262Z,8.33
2023-02-16T16:43:24.554Z,7.30
2023-02-16T16:45:58.730Z,10.27
2023-02-16T16:48:31.532Z,8.80
2023-02-16T16:51:11.345Z,7.77
2023-02-16T16:53:53.490Z,11.43
2023-02-16T16:56:22.195Z,11.50
2023-02-16T16:58:51.436Z,7.43
2023-02-16T17:01:29.831Z,9.53
2023-02-16T17:03:59.569Z,10.10
2023-02-16T17:06:27.973Z,7.87
2023-02-16T17:08:56.825Z,7.80
2023-02-16T17:11:27.725Z,9.37
2023-02-16T17:13:58.662Z,7.10
2023-02-16T17:16:35.414Z,5.80
2023-02-16T17:19:08.132Z,9.30
2023-02-16T17:21:45.134Z,10.73
2023-02-16T17:24:17.283Z,12.23
2023-02-16T17:26:45.428Z,12.30
2023-02-16T17:29:16.119Z,10.57
2023-02-16T17:31:49.478Z,12.13
2023-02-16T17:34:19.794Z,13.13
2023-02-16T17:36:47.794Z,9.57
2023-02-16T17:39:17.301Z,13.50
2023-02-16T17:41:47.416Z,11.20
2023-02-16T17:44:16.232Z,9.87
2023-02-16T17:46:44.541Z,10.53
2023-02-16T17:49:15.092Z,10.53
2023-02-16T17:51:48.281Z,12.50
2023-02-16T17:54:20.673Z,11.17
2023-02-16T17:56:50.167Z,12.70
2023-02-16T17:59:20.206Z,8.33
2023-02-16T18:01:50.536Z,12.33
2023-02-16T18:04:18.326Z,10.10
2023-02-16T18:06:51.268Z,12.27
2023-02-16T18:09:27.390Z,13.03
2023-02-16T18:11:55.448Z,11.30
2023-02-16T18:14:24.757Z,10.67
2023-02-16T18:16:55.623Z,13.60
2023-02-16T18:19:23.730Z,13.50
2023-02-16T18:21:56.385Z,12.13
2023-02-16T18:24:24.388Z,20.03
2023-02-16T18:26:52.259Z,8.40
2023-02-16T18:29:22.440Z,9.70
2023-02-16T18:31:53.429Z,8.17
2023-02-16T18:34:21.643Z,12.57
2023-02-16T18:36:51.181Z,10.87
2023-02-16T18:39:33.564Z,9.83
2023-02-16T18:42:01.372Z,13.23
2023-02-16T18:44:29.314Z,9.80
2023-02-16T18:46:57.322Z,10.10
2023-02-16T18:49:25.305Z,9.97
2023-02-16T18:51:53.324Z,8.77
2023-02-16T18:54:22.504Z,8.30
2023-02-16T18:56:50.397Z,8.30
2023-02-16T18:59:20.083Z,12.40
2023-02-16T19:01:47.954Z,10.00
2023-02-16T19:04:15.858Z,8.67
2023-02-16T19:06:44.914Z,9.20
2023-02-16T19:09:12.711Z,11.47
2023-02-16T19:11:50.746Z,9.33
2023-02-16T19:14:21.269Z,10.43
2023-02-16T19:16:49.486Z,9.33
2023-02-16T19:19:22.962Z,11.80
2023-02-16T19:21:50.870Z,13.30
2023-02-16T19:24:18.767Z,10.17
2023-02-16T19:26:48.017Z,9.80
2023-02-16T19:29:17.051Z,8.23
2023-02-16T19:31:47.649Z,8.30
2023-02-16T19:34:17.108Z,8.83
2023-02-16T19:36:45.336Z,7.40
2023-02-16T19:39:13.211Z,7.70
2023-02-16T19:41:43.202Z,6.90
2023-02-16T19:44:14.461Z,9.43
2023-02-16T19:46:49.787Z,17.90
2023-02-16T19:49:23.995Z,7.77
2023-02-16T19:51:52.578Z,8.90
2023-02-16T19:54:22.077Z,6.63
2023-02-16T19:56:49.896Z,8.33
2023-02-16T19:59:23.226Z,7.30
2023-02-16T20:01:51.280Z,7.77
2023-02-16T20:04:20.490Z,9.10
2023-02-16T20:06:48.934Z,9.90
2023-02-16T20:09:18.903Z,7.47
2023-02-16T20:11:47.005Z,10.60
2023-02-16T20:14:17.732Z,10.67
2023-02-16T20:16:49.576Z,8.67
2023-02-16T20:19:17.436Z,10.23
2023-02-16T20:21:46.375Z,9.40
2023-02-16T20:24:15.362Z,10.63
2023-02-16T20:26:49.019Z,10.53
2023-02-16T20:29:19.900Z,6.50
2023-02-16T20:31:56.109Z,9.43
2023-02-16T20:34:26.091Z,9.00
2023-02-16T20:36:55.378Z,7.70
2023-02-16T20:39:23.732Z,9.00
2023-02-16T20:41:58.685Z,10.30
2023-02-16T20:44:27.450Z,7.47
2023-02-16T20:46:56.837Z,12.00
2023-02-16T20:49:27.003Z,7.53
2023-02-16T20:51:57.976Z,8.17
2023-02-16T20:54:30.841Z,8.13
2023-02-16T20:56:58.689Z,9.10
2023-02-16T20:59:28.508Z,8.60
2023-02-16T21:02:00.301Z,8.20
2023-02-16T21:04:28.187Z,7.57
2023-02-16T21:07:03.962Z,7.53
2023-02-16T21:09:34.261Z,6.70
2023-02-16T21:12:02.125Z,7.10
2023-02-16T21:14:30.017Z,8.00
2023-02-16T21:17:02.535Z,6.57
2023-02-16T21:19:30.471Z,6.53
2023-02-16T21:21:58.437Z,7.37
2023-02-16T21:24:29.091Z,7.73
2023-02-16T21:27:07.980Z,9.93
2023-02-16T21:29:35.812Z,9.27
2023-02-16T21:32:14.081Z,7.00
2023-02-16T21:34:43.403Z,6.73
2023-02-16T21:37:11.724Z,10.80
2023-02-16T21:39:57.076Z,6.73
2023-02-16T21:42:30.554Z,6.27
2023-02-16T21:45:12.342Z,8.17
2023-02-16T21:47:59.763Z,6.13
2023-02-16T21:50:28.203Z,6.47
2023-02-16T21:53:00.017Z,8.03
2023-02-16T21:55:46.042Z,7.07
2023-02-16T21:58:14.018Z,6.47
2023-02-16T22:00:44.926Z,7.00
2023-02-16T22:03:14.484Z,5.07
2023-02-16T22:05:50.742Z,6.40
2023-02-16T22:08:18.998Z,5.20
2023-02-16T22:10:46.775Z,5.27
2023-02-16T22:13:20.513Z,8.23
2023-02-16T22:15:49.044Z,6.23
2023-02-16T22:18:18.321Z,7.90
2023-02-16T22:20:46.322Z,5.90
2023-02-16T22:25:58.802Z,10.57
2023-02-16T22:28:26.715Z,6.20
2023-02-16T22:30:54.632Z,6.03
2023-02-16T22:33:31.046Z,6.27
2023-02-16T22:35:59.172Z,5.50
2023-02-16T22:38:27.671Z,4.77
2023-02-16T22:40:55.584Z,6.13
2023-02-16T22:43:23.401Z,5.40
2023-02-16T22:45:57.360Z,7.13
2023-02-16T22:48:26.866Z,6.90
2023-02-16T22:51:03.185Z,6.13
2023-02-16T22:53:34.140Z,7.60
2023-02-16T22:56:02.084Z,5.23
2023-02-16T22:58:30.558Z,6.63
2023-02-16T23:01:01.183Z,6.27
2023-02-16T23:03:31.913Z,13.33
2023-02-16T23:05:59.864Z,7.30
2023-02-16T23:08:29.790Z,7.77
2023-02-16T23:11:06.667Z,5.93
2023-02-16T23:13:38.136Z,8.60
2023-02-16T23:16:08.152Z,6.40
2023-02-16T23:18:37.517Z,8.13
2023-02-16T23:21:17.446Z,5.60
2023-02-16T23:23:46.775Z,5.33
2023-02-16T23:26:15.073Z,4.73
2023-02-16T23:28:44.182Z,6.37
2023-02-16T23:31:13.499Z,9.83
2023-02-16T23:33:44.501Z,5.80
2023-02-16T23:36:17.735Z,5.70
2023-02-16T23:38:46.031Z,6.80
2023-02-16T23:41:15.574Z,5.60
2023-02-16T23:43:47.789Z,5.63
2023-02-16T23:46:15.687Z,7.30
2023-02-16T23:48:49.128Z,5.00
2023-02-16T23:51:18.158Z,5.70
2023-02-16T23:53:48.983Z,8.90
2023-02-16T23:56:29.732Z,9.30
2023-02-16T23:58:59.596Z,8.20
